createdAt,value
2018-12-16T00:00:03.238Z,12.43
2018-12-16T00:02:38.931Z,11.85
2018-12-16T00:05:09.445Z,10.80
2018-12-16T00:07:40.512Z,11.50
2018-12-16T00:10:10.506Z,11.90
2018-12-16T00:12:43.101Z,11.87
2018-12-16T00:15:14.505Z,11.80
2018-12-16T00:17:46.802Z,12.10
2018-12-16T00:20:19.661Z,11.65
2018-12-16T00:22:50.060Z,11.10
2018-12-16T00:25:20.717Z,12.07
2018-12-16T00:27:51.024Z,12.57
2018-12-16T00:30:22.283Z,13.00
2018-12-16T00:32:52.869Z,12.87
2018-12-16T00:35:23.491Z,11.63
2018-12-16T00:37:55.759Z,13.50
2018-12-16T00:40:25.577Z,12.53
2018-12-16T00:42:58.294Z,12.00
2018-12-16T00:45:32.669Z,12.50
2018-12-16T00:50:49.102Z,11.55
2018-12-16T00:53:20.220Z,11.40
2018-12-16T00:55:52.692Z,11.40
2018-12-16T00:58:24.165Z,13.53
2018-12-16T01:00:55.666Z,11.33
2018-12-16T01:03:26.100Z,12.10
2018-12-16T01:05:57.224Z,12.43
2018-12-16T01:08:29.482Z,13.20
2018-12-16T01:10:59.872Z,13.20
2018-12-16T01:13:29.762Z,11.97
2018-12-16T01:16:02.218Z,11.43
2018-12-16T01:21:26.838Z,13.28
2018-12-16T01:23:59.344Z,13.50
2018-12-16T01:26:28.931Z,12.50
2018-12-16T01:29:00.238Z,11.93
2018-12-16T01:31:35.853Z,13.50
2018-12-16T01:34:08.450Z,12.53
2018-12-16T01:36:44.375Z,12.07
2018-12-16T01:39:15.891Z,13.85
2018-12-16T01:41:48.137Z,12.50
2018-12-16T01:44:19.686Z,12.30
2018-12-16T01:46:50.638Z,13.40
2018-12-16T01:49:20.315Z,13.13
2018-12-16T01:51:49.379Z,12.17
2018-12-16T01:54:18.041Z,13.23
2018-12-16T01:56:48.251Z,13.20
2018-12-16T01:59:18.299Z,13.80
2018-12-16T02:01:53.904Z,12.70
2018-12-16T02:04:24.871Z,14.10
2018-12-16T02:06:55.066Z,14.43
2018-12-16T02:09:27.128Z,12.70
2018-12-16T02:11:56.798Z,13.60
2018-12-16T02:14:25.673Z,12.73
2018-12-16T02:16:54.763Z,12.58
2018-12-16T02:19:23.143Z,13.18
2018-12-16T02:21:52.022Z,12.80
2018-12-16T02:24:24.796Z,14.68
2018-12-16T02:26:55.192Z,12.58
2018-12-16T02:29:25.945Z,13.68
2018-12-16T02:31:58.066Z,14.00
2018-12-16T02:34:30.590Z,13.68
2018-12-16T02:37:00.829Z,14.40
2018-12-16T02:39:29.797Z,14.30
2018-12-16T02:41:58.663Z,13.43
2018-12-16T02:44:29.286Z,14.67
2018-12-16T02:46:59.359Z,14.33
2018-12-16T02:49:29.681Z,14.00
2018-12-16T02:51:59.034Z,14.43
2018-12-16T02:54:30.925Z,13.30
2018-12-16T02:57:02.967Z,14.70
2018-12-16T02:59:32.980Z,13.37
2018-12-16T03:02:03.498Z,14.17
2018-12-16T03:04:33.770Z,14.53
2018-12-16T03:07:03.190Z,14.40
2018-12-16T03:09:33.269Z,14.90
2018-12-16T03:12:03.545Z,12.87
2018-12-16T03:14:34.580Z,13.93
2018-12-16T03:17:04.691Z,14.50
2018-12-16T03:19:33.875Z,14.30
2018-12-16T03:22:02.821Z,12.73
2018-12-16T03:24:31.864Z,14.30
2018-12-16T03:27:01.231Z,13.50
2018-12-16T03:29:29.648Z,14.83
2018-12-16T03:31:59.713Z,13.30
2018-12-16T03:34:30.068Z,14.30
2018-12-16T03:36:59.599Z,13.90
2018-12-16T03:39:29.298Z,16.70
2018-12-16T03:42:04.124Z,15.17
2018-12-16T03:44:34.056Z,14.53
2018-12-16T03:47:02.431Z,13.30
2018-12-16T03:49:30.837Z,13.00
2018-12-16T03:51:59.849Z,13.57
2018-12-16T03:54:29.370Z,13.97
2018-12-16T03:56:57.775Z,13.67
2018-12-16T03:59:27.610Z,15.30
2018-12-16T04:01:58.233Z,14.50
2018-12-16T04:04:29.231Z,13.37
2018-12-16T04:06:59.189Z,14.43
2018-12-16T04:09:29.503Z,13.72
2018-12-16T04:11:59.024Z,15.27
2018-12-16T04:14:28.905Z,13.58
2018-12-16T04:16:58.199Z,13.60
2018-12-16T04:19:27.199Z,14.73
2018-12-16T04:21:55.617Z,15.72
2018-12-16T04:24:24.411Z,15.93
2018-12-16T04:26:53.620Z,14.60
2018-12-16T04:29:22.617Z,13.20
2018-12-16T04:31:52.194Z,15.90
2018-12-16T04:34:22.375Z,13.45
2018-12-16T04:36:50.765Z,14.37
2018-12-16T04:39:19.403Z,14.87
2018-12-16T04:41:48.375Z,14.10
2018-12-16T04:44:17.579Z,14.47
2018-12-16T04:46:46.791Z,15.37
2018-12-16T04:49:16.159Z,13.20
2018-12-16T04:51:45.029Z,13.70
2018-12-16T04:54:15.757Z,12.55
2018-12-16T04:56:44.933Z,15.00
2018-12-16T04:59:13.463Z,15.20
2018-12-16T05:01:42.379Z,14.60
2018-12-16T05:04:13.107Z,15.43
2018-12-16T05:06:42.350Z,13.88
2018-12-16T05:09:11.361Z,15.00
2018-12-16T05:11:41.090Z,14.38
2018-12-16T05:14:11.615Z,14.60
2018-12-16T05:16:42.201Z,13.25
2018-12-16T05:19:10.866Z,15.15
2018-12-16T05:21:39.472Z,13.83
2018-12-16T05:24:08.552Z,13.60
2018-12-16T05:26:37.363Z,13.98
2018-12-16T05:29:06.939Z,15.88
2018-12-16T05:31:36.697Z,16.82
2018-12-16T05:34:05.075Z,14.20
2018-12-16T05:36:35.587Z,14.58
2018-12-16T05:39:06.759Z,14.03
2018-12-16T05:41:35.162Z,13.88
2018-12-16T05:44:03.824Z,13.98
2018-12-16T05:46:33.196Z,15.53
2018-12-16T05:49:01.614Z,16.27
2018-12-16T05:51:30.810Z,14.93
2018-12-16T05:54:00.098Z,14.60
2018-12-16T05:56:29.170Z,16.10
2018-12-16T05:58:58.325Z,15.33
2018-12-16T06:01:26.719Z,15.65
2018-12-16T06:03:57.607Z,17.50
2018-12-16T06:06:27.755Z,16.00
2018-12-16T06:08:56.193Z,15.40
2018-12-16T06:11:26.244Z,16.95
2018-12-16T06:13:54.649Z,18.02
2018-12-16T06:16:23.079Z,17.10
2018-12-16T06:18:52.837Z,17.47
2018-12-16T06:21:22.337Z,18.17
2018-12-16T06:23:55.492Z,19.57
2018-12-16T06:26:27.922Z,18.53
2018-12-16T06:28:57.735Z,17.10
2018-12-16T06:31:26.185Z,19.60
2018-12-16T06:33:54.555Z,19.30
2018-12-16T06:36:23.682Z,17.90
2018-12-16T06:38:54.795Z,18.77
2018-12-16T06:41:27.165Z,22.00
2018-12-16T06:44:01.525Z,19.40
2018-12-16T06:46:32.214Z,17.92
2018-12-16T06:49:06.392Z,18.60
2018-12-16T06:51:39.065Z,18.17
2018-12-16T06:54:07.447Z,20.67
2018-12-16T06:56:35.922Z,20.80
2018-12-16T06:59:04.318Z,19.40
2018-12-16T07:01:34.072Z,20.60
2018-12-16T07:04:02.471Z,21.00
2018-12-16T07:06:31.864Z,20.07
2018-12-16T07:09:00.227Z,19.87
2018-12-16T07:11:28.709Z,22.07
2018-12-16T07:13:57.262Z,20.17
2018-12-16T07:16:28.351Z,21.15
2018-12-16T07:18:56.827Z,19.02
2018-12-16T07:21:34.652Z,21.33
2018-12-16T07:24:09.367Z,21.90
2018-12-16T07:26:41.553Z,21.77
2018-12-16T07:29:14.073Z,20.70
2018-12-16T07:31:44.169Z,21.17
2018-12-16T07:34:12.657Z,21.17
2018-12-16T07:36:43.430Z,21.43
2018-12-16T07:39:11.873Z,20.67
2018-12-16T07:41:40.415Z,19.95
2018-12-16T07:44:08.888Z,21.95
2018-12-16T07:46:37.326Z,20.40
2018-12-16T07:49:05.826Z,21.83
2018-12-16T07:51:34.289Z,23.90
2018-12-16T07:54:05.172Z,23.57
2018-12-16T07:56:33.621Z,23.60
2018-12-16T07:59:02.238Z,21.33
2018-12-16T08:01:30.715Z,22.40
2018-12-16T08:04:00.101Z,21.77
2018-12-16T08:06:28.665Z,22.80
2018-12-16T08:08:57.161Z,23.37
2018-12-16T08:11:27.442Z,23.33
2018-12-16T08:13:56.667Z,23.17
2018-12-16T08:16:25.095Z,24.03
2018-12-16T08:18:53.573Z,22.17
2018-12-16T08:21:23.108Z,21.83
2018-12-16T08:23:51.818Z,21.07
2018-12-16T08:26:20.290Z,21.75
2018-12-16T08:28:48.803Z,21.40
2018-12-16T08:31:18.130Z,21.30
2018-12-16T08:33:46.552Z,20.47
2018-12-16T08:36:15.103Z,20.90
2018-12-16T08:38:43.537Z,22.70
2018-12-16T08:41:12.245Z,22.37
2018-12-16T08:43:40.671Z,22.98
2018-12-16T08:46:09.059Z,21.02
2018-12-16T08:48:37.559Z,25.07
2018-12-16T08:51:06.021Z,23.47
2018-12-16T08:53:34.355Z,23.53
2018-12-16T08:56:02.779Z,20.43
2018-12-16T08:58:31.132Z,22.80
2018-12-16T09:01:02.706Z,22.70
2018-12-16T09:03:31.239Z,22.50
2018-12-16T09:05:59.684Z,21.70
2018-12-16T09:08:28.264Z,22.33
2018-12-16T09:10:57.477Z,21.90
2018-12-16T09:13:25.958Z,21.62
2018-12-16T09:15:54.629Z,23.20
2018-12-16T09:18:23.020Z,20.43
2018-12-16T09:20:51.434Z,22.30
2018-12-16T09:23:20.420Z,21.03
2018-12-16T09:25:48.791Z,19.23
2018-12-16T09:28:17.164Z,21.42
2018-12-16T09:30:45.549Z,21.90
2018-12-16T09:33:13.952Z,22.55
2018-12-16T09:35:42.360Z,22.27
2018-12-16T09:38:10.789Z,23.07
2018-12-16T09:40:39.162Z,22.47
2018-12-16T09:43:07.550Z,22.10
2018-12-16T09:45:35.907Z,21.97
2018-12-16T09:48:04.358Z,21.68
2018-12-16T09:50:32.825Z,19.90
2018-12-16T09:53:01.255Z,22.67
2018-12-16T09:55:29.726Z,21.73
2018-12-16T09:57:58.103Z,21.90
2018-12-16T10:00:26.489Z,20.47
2018-12-16T10:02:54.842Z,21.42
2018-12-16T10:05:23.278Z,21.23
2018-12-16T10:07:51.738Z,22.10
2018-12-16T10:10:20.095Z,21.33
2018-12-16T10:12:48.522Z,20.57
2018-12-16T10:15:17.259Z,22.07
2018-12-16T10:17:45.698Z,21.07
2018-12-16T10:20:14.273Z,22.65
2018-12-16T10:22:42.636Z,22.05
2018-12-16T10:25:11.077Z,22.10
2018-12-16T10:27:39.604Z,20.30
2018-12-16T10:30:09.064Z,22.10
2018-12-16T10:32:37.435Z,20.87
2018-12-16T10:35:06.232Z,25.13
2018-12-16T10:37:34.641Z,22.50
2018-12-16T10:40:03.205Z,20.67
2018-12-16T10:42:31.719Z,24.80
2018-12-16T10:45:00.134Z,22.27
2018-12-16T10:47:28.570Z,20.47
2018-12-16T10:49:56.963Z,22.37
2018-12-16T10:52:25.345Z,20.50
2018-12-16T10:54:58.406Z,23.90
2018-12-16T10:57:24.245Z,22.60
2018-12-16T10:59:52.757Z,22.02
2018-12-16T11:02:21.127Z,24.00
2018-12-16T11:04:49.506Z,23.10
2018-12-16T11:07:17.871Z,23.07
2018-12-16T11:09:46.466Z,20.73
2018-12-16T11:12:15.394Z,23.10
2018-12-16T11:14:43.804Z,21.83
2018-12-16T11:17:12.604Z,20.60
2018-12-16T11:19:43.022Z,21.70
2018-12-16T11:22:13.211Z,21.10
2018-12-16T11:24:43.216Z,21.70
2018-12-16T11:27:11.822Z,21.47
2018-12-16T11:29:40.482Z,21.82
2018-12-16T11:32:08.936Z,21.60
2018-12-16T11:34:37.291Z,21.73
2018-12-16T11:37:05.698Z,22.63
2018-12-16T11:39:34.203Z,23.27
2018-12-16T11:42:02.751Z,20.73
2018-12-16T11:44:31.136Z,22.30
2018-12-16T11:46:59.561Z,22.98
2018-12-16T11:49:27.958Z,22.70
2018-12-16T11:51:56.398Z,23.67
2018-12-16T11:54:24.745Z,21.47
2018-12-16T11:56:53.165Z,23.20
2018-12-16T11:59:21.622Z,23.57
2018-12-16T12:01:49.954Z,20.60
2018-12-16T12:04:18.406Z,22.93
2018-12-16T12:06:46.827Z,22.50
2018-12-16T12:09:15.357Z,21.80
2018-12-16T12:11:43.847Z,23.07
2018-12-16T12:14:12.223Z,22.73
2018-12-16T12:16:40.764Z,22.20
2018-12-16T12:19:09.150Z,22.30
2018-12-16T12:21:37.998Z,22.67
2018-12-16T12:24:06.423Z,23.50
2018-12-16T12:26:34.829Z,22.83
2018-12-16T12:29:03.395Z,24.80
2018-12-16T12:31:31.887Z,21.40
2018-12-16T12:34:00.395Z,23.23
2018-12-16T12:36:29.777Z,20.87
2018-12-16T12:38:58.168Z,24.03
2018-12-16T12:41:26.665Z,23.50
2018-12-16T12:43:55.072Z,23.27
2018-12-16T12:46:25.093Z,24.70
2018-12-16T12:48:53.635Z,22.57
2018-12-16T12:51:22.042Z,22.40
2018-12-16T12:53:50.604Z,23.73
2018-12-16T12:56:18.992Z,24.70
2018-12-16T12:58:47.365Z,25.90
2018-12-16T13:01:15.766Z,24.07
2018-12-16T13:03:44.186Z,22.57
2018-12-16T13:06:17.021Z,24.53
2018-12-16T13:08:48.182Z,22.53
2018-12-16T13:11:18.362Z,21.85
2018-12-16T13:13:48.373Z,19.97
2018-12-16T13:16:18.554Z,22.80
2018-12-16T13:18:48.654Z,22.40
2018-12-16T13:21:18.564Z,23.00
2018-12-16T13:23:48.193Z,22.50
2018-12-16T13:26:18.518Z,20.97
2018-12-16T13:28:47.109Z,21.80
2018-12-16T13:31:15.611Z,21.85
2018-12-16T13:33:44.062Z,23.47
2018-12-16T13:36:12.546Z,24.53
2018-12-16T13:38:40.971Z,23.13
2018-12-16T13:41:09.431Z,22.37
2018-12-16T13:43:37.925Z,24.47
2018-12-16T13:46:06.328Z,25.43
2018-12-16T13:48:34.723Z,23.20
2018-12-16T13:51:03.161Z,23.33
2018-12-16T13:53:31.614Z,23.80
2018-12-16T13:56:02.151Z,22.33
2018-12-16T13:58:31.038Z,23.40
2018-12-16T14:00:59.495Z,25.40
2018-12-16T14:03:28.031Z,25.70
2018-12-16T14:05:56.845Z,25.30
2018-12-16T14:08:25.517Z,25.10
2018-12-16T14:10:53.956Z,22.27
2018-12-16T14:13:22.414Z,22.57
2018-12-16T14:15:52.457Z,22.73
2018-12-16T14:18:21.228Z,22.73
2018-12-16T14:20:49.694Z,25.10
2018-12-16T14:23:18.123Z,22.50
2018-12-16T14:25:48.205Z,23.87
2018-12-16T14:28:16.831Z,26.57
2018-12-16T14:30:46.488Z,27.00
2018-12-16T14:33:14.946Z,24.50
2018-12-16T14:35:44.921Z,26.50
2018-12-16T14:38:13.845Z,27.32
2018-12-16T14:40:42.971Z,24.00
2018-12-16T14:43:11.435Z,27.73
2018-12-16T14:45:39.914Z,25.03
2018-12-16T14:48:08.369Z,23.73
2018-12-16T14:50:36.756Z,27.83
2018-12-16T14:53:05.206Z,23.40
2018-12-16T14:55:33.623Z,24.07
2018-12-16T14:58:02.113Z,25.23
2018-12-16T15:00:30.601Z,23.57
2018-12-16T15:02:59.039Z,26.60
2018-12-16T15:05:35.137Z,26.60
2018-12-16T15:08:04.743Z,27.10
2018-12-16T15:10:33.152Z,28.43
2018-12-16T15:13:01.631Z,24.15
2018-12-16T15:15:30.022Z,28.90
2018-12-16T15:17:58.556Z,27.30
2018-12-16T15:20:27.426Z,26.53
2018-12-16T15:22:56.763Z,25.60
2018-12-16T15:25:25.291Z,23.80
2018-12-16T15:27:54.826Z,23.87
2018-12-16T15:30:23.649Z,24.77
2018-12-16T15:32:52.292Z,24.80
2018-12-16T15:35:21.659Z,21.17
2018-12-16T15:37:52.244Z,23.63
2018-12-16T15:40:21.949Z,22.70
2018-12-16T15:42:51.395Z,22.75
2018-12-16T15:45:19.969Z,22.07
2018-12-16T15:47:48.431Z,23.40
2018-12-16T15:50:16.995Z,23.55
2018-12-16T15:52:45.423Z,23.10
2018-12-16T15:55:13.922Z,24.73
2018-12-16T15:57:42.438Z,22.48
2018-12-16T16:00:11.619Z,23.92
2018-12-16T16:02:40.112Z,25.43
2018-12-16T16:05:09.121Z,26.97
2018-12-16T16:07:37.847Z,25.33
2018-12-16T16:10:08.060Z,22.90
2018-12-16T16:12:36.518Z,25.23
2018-12-16T16:15:05.453Z,23.57
2018-12-16T16:17:33.952Z,24.27
2018-12-16T16:20:02.739Z,23.70
2018-12-16T16:22:31.558Z,25.47
2018-12-16T16:24:59.994Z,24.30
2018-12-16T16:27:29.060Z,24.10
2018-12-16T16:29:57.583Z,24.82
2018-12-16T16:32:26.200Z,26.30
2018-12-16T16:34:54.768Z,24.07
2018-12-16T16:37:23.263Z,26.83
2018-12-16T16:39:51.754Z,28.15
2018-12-16T16:42:20.599Z,26.40
2018-12-16T16:44:49.275Z,30.30
2018-12-16T16:47:18.806Z,26.02
2018-12-16T16:49:53.897Z,27.53
2018-12-16T16:52:22.652Z,29.50
2018-12-16T16:54:52.314Z,27.05
2018-12-16T16:57:20.886Z,30.70
2018-12-16T16:59:49.947Z,29.17
2018-12-16T17:02:18.812Z,27.95
2018-12-16T17:04:47.347Z,27.77
2018-12-16T17:07:16.016Z,25.47
2018-12-16T17:09:44.446Z,24.40
2018-12-16T17:12:13.102Z,27.07
2018-12-16T17:14:41.702Z,27.10
2018-12-16T17:17:10.547Z,26.87
2018-12-16T17:19:39.017Z,27.07
2018-12-16T17:22:07.791Z,29.98
2018-12-16T17:24:37.217Z,29.60
2018-12-16T17:27:05.763Z,27.05
2018-12-16T17:29:34.351Z,30.13
2018-12-16T17:32:03.210Z,27.30
2018-12-16T17:34:31.692Z,28.42
2018-12-16T17:37:00.166Z,28.73
2018-12-16T17:39:28.674Z,26.45
2018-12-16T17:41:57.309Z,29.37
2018-12-16T17:44:25.754Z,30.03
2018-12-16T17:46:54.306Z,29.23
2018-12-16T17:49:23.410Z,29.80
2018-12-16T17:51:51.891Z,24.60
2018-12-16T17:54:20.331Z,27.90
2018-12-16T17:56:48.755Z,26.73
2018-12-16T17:59:17.980Z,29.40
2018-12-16T18:01:47.859Z,28.70
2018-12-16T18:04:16.425Z,29.87
2018-12-16T18:06:45.054Z,26.43
2018-12-16T18:09:13.623Z,30.57
2018-12-16T18:11:42.093Z,32.37
2018-12-16T18:14:10.675Z,31.97
2018-12-16T18:16:39.199Z,28.42
2018-12-16T18:19:08.432Z,29.17
2018-12-16T18:21:37.246Z,31.00
2018-12-16T18:24:05.625Z,24.98
2018-12-16T18:26:34.534Z,25.47
2018-12-16T18:29:04.469Z,26.63
2018-12-16T18:31:34.506Z,29.10
2018-12-16T18:34:03.179Z,28.07
2018-12-16T18:36:31.619Z,26.67
2018-12-16T18:39:00.039Z,26.27
2018-12-16T18:41:28.907Z,25.95
2018-12-16T18:43:57.730Z,25.20
2018-12-16T18:46:26.300Z,26.00
2018-12-16T18:48:54.794Z,25.40
2018-12-16T18:51:23.338Z,25.52
2018-12-16T18:53:51.819Z,25.70
2018-12-16T18:56:20.396Z,27.90
2018-12-16T18:58:49.799Z,27.10
2018-12-16T19:01:18.288Z,26.13
2018-12-16T19:03:46.785Z,25.43
2018-12-16T19:06:15.430Z,26.47
2018-12-16T19:08:43.859Z,24.73
2018-12-16T19:11:13.827Z,27.00
2018-12-16T19:13:43.319Z,27.20
2018-12-16T19:16:11.842Z,26.50
2018-12-16T19:18:40.560Z,29.23
2018-12-16T19:21:09.990Z,28.80
2018-12-16T19:23:38.614Z,27.10
2018-12-16T19:26:07.026Z,28.77
2018-12-16T19:28:35.914Z,26.03
2018-12-16T19:31:04.435Z,28.43
2018-12-16T19:33:33.551Z,26.63
2018-12-16T19:36:02.528Z,26.90
2018-12-16T19:38:31.622Z,29.67
2018-12-16T19:41:00.559Z,30.20
2018-12-16T19:43:29.428Z,33.00
2018-12-16T19:45:58.780Z,34.58
2018-12-16T19:48:28.165Z,36.10
2018-12-16T19:50:57.156Z,33.67
2018-12-16T19:53:25.630Z,32.10
2018-12-16T19:55:54.192Z,28.67
2018-12-16T19:58:22.757Z,27.93
2018-12-16T20:00:51.541Z,30.33
2018-12-16T20:03:20.060Z,28.23
2018-12-16T20:05:53.730Z,28.80
2018-12-16T20:08:22.370Z,33.77
2018-12-16T20:10:50.847Z,30.97
2018-12-16T20:13:19.324Z,29.50
2018-12-16T20:15:47.984Z,28.90
2018-12-16T20:18:16.382Z,30.00
2018-12-16T20:20:44.852Z,29.90
2018-12-16T20:23:13.275Z,31.40
2018-12-16T20:25:43.191Z,30.50
2018-12-16T20:28:11.818Z,31.65
2018-12-16T20:30:40.361Z,28.20
2018-12-16T20:33:09.112Z,34.70
2018-12-16T20:35:37.704Z,29.70
2018-12-16T20:38:06.333Z,31.20
2018-12-16T20:40:35.025Z,31.77
2018-12-16T20:43:03.737Z,35.37
2018-12-16T20:45:32.188Z,32.07
2018-12-16T20:48:00.711Z,32.58
2018-12-16T20:50:29.200Z,31.00
2018-12-16T20:52:57.714Z,34.23
2018-12-16T20:55:27.217Z,33.87
2018-12-16T20:57:55.674Z,34.18
2018-12-16T21:00:24.275Z,33.73
2018-12-16T21:02:52.830Z,33.83
2018-12-16T21:05:21.410Z,32.37
2018-12-16T21:07:49.946Z,32.10
2018-12-16T21:10:18.395Z,31.00
2018-12-16T21:12:51.976Z,31.17
2018-12-16T21:15:26.021Z,34.27
2018-12-16T21:17:59.784Z,30.70
2018-12-16T21:20:28.226Z,34.77
2018-12-16T21:22:57.637Z,31.12
2018-12-16T21:25:26.097Z,33.00
2018-12-16T21:27:55.067Z,33.42
2018-12-16T21:30:23.501Z,36.27
2018-12-16T21:32:51.978Z,32.87
2018-12-16T21:35:20.429Z,28.83
2018-12-16T21:37:49.467Z,34.45
2018-12-16T21:40:17.952Z,32.30
2018-12-16T21:42:46.341Z,36.17
2018-12-16T21:45:14.742Z,32.30
2018-12-16T21:47:43.193Z,32.63
2018-12-16T21:50:12.634Z,35.30
2018-12-16T21:52:41.630Z,35.03
2018-12-16T21:55:10.235Z,38.02
2018-12-16T21:57:38.963Z,40.07
2018-12-16T22:00:09.855Z,33.80
2018-12-16T22:02:38.511Z,34.77
2018-12-16T22:05:10.463Z,32.40
2018-12-16T22:07:39.692Z,33.93
2018-12-16T22:10:08.326Z,39.43
2018-12-16T22:12:37.244Z,34.43
2018-12-16T22:15:06.275Z,35.83
2018-12-16T22:17:34.688Z,33.80
2018-12-16T22:20:03.055Z,35.87
2018-12-16T22:22:31.653Z,34.77
2018-12-16T22:25:00.063Z,36.97
2018-12-16T22:27:28.673Z,37.07
2018-12-16T22:29:57.072Z,36.40
2018-12-16T22:32:25.894Z,31.20
2018-12-16T22:34:54.542Z,30.67
2018-12-16T22:37:23.248Z,32.10
2018-12-16T22:39:52.222Z,31.37
2018-12-16T22:42:21.019Z,32.40
2018-12-16T22:44:50.088Z,33.83
2018-12-16T22:47:19.372Z,30.40
2018-12-16T22:49:48.202Z,32.10
2018-12-16T22:52:17.503Z,31.17
2018-12-16T22:54:46.208Z,30.40
2018-12-16T22:57:15.515Z,29.30
2018-12-16T22:59:44.065Z,28.67
2018-12-16T23:02:12.531Z,28.80
2018-12-16T23:04:41.169Z,30.50
2018-12-16T23:07:09.886Z,32.78
2018-12-16T23:09:38.448Z,29.18
2018-12-16T23:12:06.884Z,29.00
2018-12-16T23:14:35.546Z,30.80
2018-12-16T23:17:04.867Z,29.37
2018-12-16T23:19:34.185Z,31.53
2018-12-16T23:22:02.729Z,29.35
2018-12-16T23:24:31.503Z,31.90
2018-12-16T23:26:59.919Z,30.77
2018-12-16T23:29:28.373Z,29.87
2018-12-16T23:31:56.893Z,31.57
2018-12-16T23:34:26.087Z,30.37
2018-12-16T23:36:54.490Z,29.70
2018-12-16T23:39:23.670Z,27.73
2018-12-16T23:41:52.075Z,31.27
2018-12-16T23:44:20.555Z,27.73
2018-12-16T23:46:49.078Z,30.20
2018-12-16T23:49:17.432Z,29.10
2018-12-16T23:51:45.835Z,31.33
2018-12-16T23:54:14.267Z,33.77
2018-12-16T23:56:42.621Z,33.90
2018-12-16T23:59:10.986Z,32.43
